KPDK/PDK METAR and TAF weather

Enter ICAO airport designator
Station Type Date Time Source
KPDK METAR 2019/04/22 19:53 UTC NOAA

KPDK 221953Z 10SM CLR 26/06 A3014 RMK AO2 SLP200 T02610061


Station Type Date Time Source
KPDK Decoded METAR 2019/04/22 19:53 UTC NOAA

ATLANTA DE KALB-PEACHTREE, GA, United States (KPDK) 33-53N 084-18W 302M
Apr 22, 2019 - 03:53 PM EDT / 2019.04.22 1953 UTC
Visibility: 10 mile(s):0
Sky conditions: clear
Temperature: 79.0 F (26.1 C)
Dew Point: 43.0 F (6.1 C)
Relative Humidity: 27%
Pressure (altimeter): 30.14 in. Hg (1020 hPa)
ob: KPDK 221953Z 10SM CLR 26/06 A3014 RMK AO2 SLP200 T02610061
cycle: 20

Station Type Date Time Source
KPDK TAF 2019/04/22 18:33 UTC NOAA

TAF KPDK 221730Z 2218/2318 31006KT P6SM SKC
FM230000 00000KT P6SM SKC
FM231500 25008KT P6SM SCT250

Example: see airport list